Time;durP1;ratioP1;P1;durP2;ratioP2;P2;SDS_P1;SDS_P2;PMS_P1;PMS_P2;Temp;Humidity;BMP_temperature;BMP_pressure;BME280_temperature;BME280_humidity;BME280_pressure;Samples;Min_cycle;Max_cycle;Signal;HPM_P1;HPM_P2
2022/07/16 00:01:23;;;;;;;6.10;2.63;;;15.30;99.90;;;;;;4990220;28;20192;-53
2022/07/16 00:03:51;;;;;;;4.47;2.30;;;15.30;99.90;;;;;;4994058;28;20564;-53
2022/07/16 00:06:17;;;;;;;3.90;2.63;;;15.30;99.90;;;;;;4989040;28;20443;-53
2022/07/16 00:08:42;;;;;;;3.70;2.70;;;15.40;99.90;;;;;;4987837;28;20450;-53
2022/07/16 00:11:08;;;;;;;5.10;2.50;;;15.30;99.90;;;;;;4986566;28;20200;-53
2022/07/16 00:13:33;;;;;;;4.73;2.33;;;15.30;99.90;;;;;;4988754;28;20201;-53
2022/07/16 00:15:59;;;;;;;2.67;2.43;;;15.20;99.90;;;;;;4987670;28;20216;-52
2022/07/16 00:21:09;;;;;;;2.70;2.50;;;15.10;99.90;;;;;;4992624;28;20206;-53
2022/07/16 00:23:35;;;;;;;5.20;2.70;;;15.20;99.90;;;;;;4987121;28;20452;-52
2022/07/16 00:26:00;;;;;;;3.50;2.60;;;15.10;99.90;;;;;;4985867;28;20188;-53
2022/07/16 00:28:26;;;;;;;5.80;2.87;;;15.10;99.90;;;;;;4989859;28;20207;-52
2022/07/16 00:30:51;;;;;;;4.20;3.80;;;15.10;1.00;;;;;;4990420;28;20196;-53
2022/07/16 00:33:17;;;;;;;6.60;4.20;;;15.00;1.00;;;;;;4986339;28;20224;-53
2022/07/16 00:35:43;;;;;;;11.07;4.20;;;14.90;1.00;;;;;;4987000;28;20667;-52
2022/07/16 00:38:08;;;;;;;5.97;4.43;;;14.80;1.00;;;;;;4988253;28;20223;-52
2022/07/16 00:40:34;;;;;;;6.77;3.80;;;14.80;1.00;;;;;;4990274;28;20232;-52
2022/07/16 00:43:01;;;;;;;5.03;3.93;;;14.70;5.50;;;;;;4988333;28;20199;-52
2022/07/16 00:45:27;;;;;;;5.13;4.00;;;14.70;80.80;;;;;;4985544;28;20666;-52
2022/07/16 00:47:53;;;;;;;4.93;4.00;;;14.70;99.90;;;;;;4987063;28;20450;-52
2022/07/16 00:50:18;;;;;;;5.03;4.00;;;14.70;99.90;;;;;;4987768;28;21318;-52
2022/07/16 00:52:44;;;;;;;9.07;4.70;;;14.60;86.70;;;;;;4989069;28;20263;-52
2022/07/16 00:55:10;;;;;;;5.43;4.67;;;14.60;99.90;;;;;;4986804;28;20327;-52
2022/07/16 00:57:36;;;;;;;8.27;4.93;;;14.50;99.90;;;;;;4989840;28;20245;-53
2022/07/16 01:00:05;;;;;;;6.53;3.80;;;14.40;99.90;;;;;;4979592;28;20189;-52
2022/07/16 01:02:33;;;;;;;5.03;4.53;;;14.40;99.90;;;;;;4989367;28;20228;-53
2022/07/16 01:04:58;;;;;;;9.20;4.40;;;14.40;1.00;;;;;;4989600;28;20536;-52
2022/07/16 01:07:24;;;;;;;8.63;4.40;;;14.40;1.00;;;;;;4985159;28;20869;-52
2022/07/16 01:09:51;;;;;;;7.70;4.50;;;14.40;1.00;;;;;;4982723;28;20231;-53
2022/07/16 01:12:17;;;;;;;5.70;4.80;;;14.30;1.00;;;;;;4987405;28;20204;-53
2022/07/16 01:14:44;;;;;;;9.73;4.30;;;14.30;1.00;;;;;;4980631;28;20938;-54
2022/07/16 01:17:09;;;;;;;7.23;4.67;;;14.40;1.00;;;;;;4988041;28;20243;-53
2022/07/16 01:19:35;;;;;;;6.30;4.67;;;14.30;1.00;;;;;;4989132;28;20439;-52
2022/07/16 01:22:00;;;;;;;5.80;4.30;;;14.30;99.90;;;;;;4988337;28;20227;-53
2022/07/16 01:24:26;;;;;;;7.10;4.90;;;14.30;99.90;;;;;;4987104;28;20193;-52
2022/07/16 01:26:51;;;;;;;8.13;5.70;;;14.40;99.90;;;;;;4988734;28;20193;-52
2022/07/16 01:29:17;;;;;;;10.80;5.80;;;14.30;99.90;;;;;;4987467;28;20633;-53
2022/07/16 01:31:43;;;;;;;6.07;4.97;;;14.30;99.90;;;;;;4985781;28;20220;-53
2022/07/16 01:34:26;;;;;;;5.77;5.27;;;14.30;1.00;;;;;;4985515;28;20742;-52
2022/07/16 01:36:54;;;;;;;6.17;5.17;;;14.30;99.90;;;;;;4987240;28;20250;-52
2022/07/16 01:39:20;;;;;;;11.20;5.87;;;14.30;99.90;;;;;;4987257;28;21076;-53
2022/07/16 01:41:54;;;;;;;11.67;5.70;;;14.30;1.00;;;;;;4986441;28;20454;-52
2022/07/16 01:44:21;;;;;;;10.30;5.87;;;14.30;1.00;;;;;;4986292;28;20439;-53
2022/07/16 01:46:46;;;;;;;9.67;6.20;;;14.30;99.90;;;;;;4987902;28;20439;-52
2022/07/16 01:49:12;;;;;;;10.10;5.57;;;14.30;99.90;;;;;;4987500;28;20487;-53
2022/07/16 01:51:38;;;;;;;6.87;5.90;;;14.30;99.90;;;;;;4989499;28;20192;-53
2022/07/16 01:54:03;;;;;;;8.10;5.87;;;14.30;99.90;;;;;;4985587;28;20213;-53
2022/07/16 01:56:29;;;;;;;9.23;6.13;;;14.30;99.90;;;;;;4987120;28;20193;-52
2022/07/16 01:58:54;;;;;;;8.30;5.50;;;14.30;99.90;;;;;;4987740;28;20195;-52
2022/07/16 02:01:20;;;;;;;6.60;5.73;;;14.30;99.90;;;;;;4989886;28;20775;-52
2022/07/16 02:03:45;;;;;;;7.10;6.03;;;14.30;99.90;;;;;;4987162;28;20196;-53
2022/07/16 02:06:11;;;;;;;6.87;5.50;;;14.30;99.90;;;;;;4984332;28;20527;-55
2022/07/16 02:08:37;;;;;;;9.40;6.03;;;14.30;99.90;;;;;;4983460;28;20196;-52
2022/07/16 02:11:02;;;;;;;16.00;6.90;;;14.20;99.90;;;;;;4976730;28;20200;-52
2022/07/16 02:13:28;;;;;;;6.87;6.20;;;14.20;99.90;;;;;;4985301;28;20208;-53
2022/07/16 02:15:53;;;;;;;9.63;5.90;;;14.30;99.90;;;;;;4987957;28;20200;-52
2022/07/16 02:18:19;;;;;;;9.03;5.97;;;14.30;99.90;;;;;;4988332;28;20292;-53
2022/07/16 02:20:46;;;;;;;12.17;6.83;;;14.30;99.90;;;;;;4985072;28;20555;-52
2022/07/16 02:23:11;;;;;;;7.53;5.93;;;14.30;99.90;;;;;;4989414;28;20287;-53
2022/07/16 02:25:37;;;;;;;7.90;6.13;;;14.30;99.90;;;;;;4984249;28;20457;-52
2022/07/16 02:28:06;;;;;;;7.53;6.20;;;14.20;99.90;;;;;;4984553;28;20192;-52
2022/07/16 02:30:32;;;;;;;7.83;7.03;;;14.20;99.90;;;;;;4986496;28;20196;-53
2022/07/16 02:32:58;;;;;;;14.33;6.23;;;14.30;99.90;;;;;;4984768;28;20490;-53
2022/07/16 02:35:23;;;;;;;9.67;6.70;;;14.30;99.90;;;;;;4981302;28;20447;-53
2022/07/16 02:37:49;;;;;;;8.33;5.80;;;14.30;99.90;;;;;;4982418;28;20204;-53
2022/07/16 02:40:15;;;;;;;8.60;6.00;;;14.20;99.90;;;;;;4988731;28;20244;-52
2022/07/16 02:42:41;;;;;;;9.40;6.50;;;14.30;99.90;;;;;;4987257;28;20943;-52
2022/07/16 02:45:08;;;;;;;7.07;5.53;;;14.30;99.90;;;;;;4981574;28;20204;-53
2022/07/16 02:47:34;;;;;;;7.10;5.70;;;14.20;99.90;;;;;;4988301;28;20534;-53
2022/07/16 02:50:00;;;;;;;10.20;5.70;;;14.30;99.90;;;;;;4986865;28;20613;-53
2022/07/16 02:52:25;;;;;;;7.90;5.40;;;14.30;99.90;;;;;;4986235;28;20564;-53
2022/07/16 02:54:51;;;;;;;6.07;4.80;;;14.30;99.90;;;;;;4979915;28;20264;-52
2022/07/16 02:57:17;;;;;;;8.77;5.67;;;14.30;99.90;;;;;;4987188;28;20626;-54
2022/07/16 02:59:42;;;;;;;11.77;4.70;;;14.30;99.90;;;;;;4982664;28;20192;-53
2022/07/16 03:02:08;;;;;;;8.90;4.80;;;14.30;99.90;;;;;;4984969;28;20192;-53
2022/07/16 03:04:33;;;;;;;8.93;4.63;;;14.40;99.90;;;;;;4985586;28;20324;-52
2022/07/16 03:06:59;;;;;;;4.70;4.03;;;14.40;99.90;;;;;;4978002;28;20184;-53
2022/07/16 03:09:25;;;;;;;6.20;4.20;;;14.30;99.90;;;;;;4985821;28;20205;-54
2022/07/16 03:11:50;;;;;;;5.50;4.10;;;14.30;99.90;;;;;;4988273;28;20196;-53
2022/07/16 03:14:16;;;;;;;6.70;4.13;;;14.30;99.90;;;;;;4984546;28;20227;-53
2022/07/16 03:16:42;;;;;;;8.17;4.33;;;14.30;99.90;;;;;;4983581;28;20220;-53
2022/07/16 03:19:07;;;;;;;8.60;3.40;;;14.20;99.90;;;;;;4984891;28;20292;-53
2022/07/16 03:21:33;;;;;;;5.80;3.90;;;14.20;99.90;;;;;;4987084;28;20207;-53
2022/07/16 03:23:58;;;;;;;7.73;3.87;;;14.20;99.90;;;;;;4986348;28;20209;-53
2022/07/16 03:26:24;;;;;;;5.03;3.40;;;14.20;99.90;;;;;;4981553;28;20203;-53
2022/07/16 03:28:50;;;;;;;3.97;3.40;;;14.20;99.90;;;;;;4988519;28;20219;-53
2022/07/16 03:31:17;;;;;;;7.77;3.80;;;14.10;99.90;;;;;;4979279;28;20890;-53
2022/07/16 03:33:43;;;;;;;8.73;3.10;;;14.20;99.90;;;;;;4988850;28;20279;-53
2022/07/16 03:36:09;;;;;;;3.67;3.23;;;14.10;99.90;;;;;;4990218;28;20992;-53
2022/07/16 03:41:19;;;;;;;3.10;2.80;;;14.00;99.90;;;;;;4989521;28;20278;-53
2022/07/16 03:43:45;;;;;;;4.53;3.00;;;14.00;99.90;;;;;;4987624;28;20428;-53
2022/07/16 03:46:13;;;;;;;5.20;3.00;;;14.00;99.90;;;;;;4989860;28;20220;-53
2022/07/16 03:48:42;;;;;;;3.57;3.17;;;13.90;99.90;;;;;;4990504;28;20191;-53
2022/07/16 03:51:07;;;;;;;7.97;2.77;;;13.90;99.90;;;;;;4987136;28;20432;-53
2022/07/16 03:53:34;;;;;;;5.30;3.30;;;13.90;99.90;;;;;;4986895;28;20495;-53
2022/07/16 03:55:59;;;;;;;5.17;3.00;;;13.90;99.90;;;;;;4989302;28;20189;-53
2022/07/16 03:58:28;;;;;;;8.10;3.07;;;13.90;99.90;;;;;;4990910;28;20485;-53
2022/07/16 04:00:53;;;;;;;5.30;2.83;;;13.90;99.90;;;;;;4985249;28;20185;-53
2022/07/16 04:03:20;;;;;;;4.67;3.10;;;13.90;99.90;;;;;;4985968;28;20502;-53
2022/07/16 04:05:45;;;;;;;5.63;2.97;;;14.00;99.90;;;;;;4986278;28;20188;-53
2022/07/16 04:08:11;;;;;;;5.47;3.03;;;14.00;99.90;;;;;;4989339;28;21011;-53
2022/07/16 04:10:37;;;;;;;4.17;3.30;;;14.00;99.90;;;;;;4982252;28;20197;-52
2022/07/16 04:13:03;;;;;;;7.10;3.73;;;14.00;99.90;;;;;;4986265;28;20205;-52
2022/07/16 04:15:29;;;;;;;6.23;3.13;;;14.10;99.90;;;;;;4988440;28;20199;-56
2022/07/16 04:17:55;;;;;;;7.30;2.83;;;14.10;99.90;;;;;;4988744;28;20432;-53
2022/07/16 04:20:20;;;;;;;5.60;3.00;;;14.10;99.90;;;;;;4986440;28;20202;-53
2022/07/16 04:22:46;;;;;;;5.33;3.00;;;14.00;99.90;;;;;;4987252;28;20188;-53
2022/07/16 04:25:13;;;;;;;7.23;3.27;;;14.10;99.90;;;;;;4989060;28;20681;-53
2022/07/16 04:27:39;;;;;;;7.23;2.67;;;14.00;99.90;;;;;;4985701;28;20188;-53
2022/07/16 04:30:07;;;;;;;4.83;3.10;;;14.00;99.90;;;;;;4990297;28;20454;-53
2022/07/16 04:32:34;;;;;;;4.30;2.80;;;14.00;99.90;;;;;;4986617;28;20500;-53
2022/07/16 04:34:59;;;;;;;5.80;3.10;;;14.00;99.90;;;;;;4991744;28;20447;-53
2022/07/16 04:37:25;;;;;;;5.27;2.80;;;14.00;99.90;;;;;;4983924;28;20969;-53
2022/07/16 04:39:51;;;;;;;5.53;3.17;;;14.10;99.90;;;;;;4988539;28;20232;-53
2022/07/16 04:42:17;;;;;;;5.60;2.93;;;14.10;99.90;;;;;;4987740;28;20276;-52
2022/07/16 04:44:43;;;;;;;5.07;3.27;;;14.20;99.90;;;;;;4987883;28;20878;-54
2022/07/16 04:47:09;;;;;;;6.10;2.80;;;14.20;99.90;;;;;;4989344;28;20248;-53
2022/07/16 04:49:34;;;;;;;7.60;2.80;;;14.30;99.90;;;;;;4990708;28;20338;-53
2022/07/16 04:52:00;;;;;;;4.70;2.70;;;14.30;99.90;;;;;;4989600;28;20200;-54
2022/07/16 04:54:26;;;;;;;9.57;3.07;;;14.30;99.90;;;;;;4985851;28;20615;-53
2022/07/16 04:56:51;;;;;;;7.90;3.17;;;14.30;99.90;;;;;;4987551;28;20191;-53
2022/07/16 04:59:17;;;;;;;6.00;3.30;;;14.30;99.90;;;;;;4986867;28;20184;-53
2022/07/16 05:01:43;;;;;;;6.57;3.47;;;14.30;99.90;;;;;;4991412;28;20180;-53
2022/07/16 05:04:08;;;;;;;4.33;2.80;;;14.30;99.90;;;;;;4988134;28;20188;-53
2022/07/16 05:06:34;;;;;;;6.03;2.87;;;14.30;99.90;;;;;;4990535;28;20258;-57
2022/07/16 05:09:01;;;;;;;5.33;2.87;;;14.30;99.90;;;;;;4990525;28;20184;-53
2022/07/16 05:11:27;;;;;;;6.33;3.10;;;14.30;99.90;;;;;;4978334;28;20872;-53
2022/07/16 05:13:53;;;;;;;9.10;2.73;;;14.40;99.90;;;;;;4990319;28;20510;-53
2022/07/16 05:16:19;;;;;;;8.10;3.00;;;14.30;99.90;;;;;;4988704;28;20463;-52
2022/07/16 05:18:45;;;;;;;3.87;2.40;;;14.40;99.90;;;;;;4990544;28;20180;-53
2022/07/16 05:21:10;;;;;;;3.10;2.30;;;14.40;99.90;;;;;;4988120;28;20439;-53
2022/07/16 05:23:36;;;;;;;5.33;3.17;;;14.30;99.90;;;;;;4982794;28;20275;-53
2022/07/16 05:26:02;;;;;;;7.90;2.67;;;14.40;99.90;;;;;;4982778;28;20196;-53
2022/07/16 05:28:28;;;;;;;5.70;2.40;;;14.50;99.90;;;;;;4979498;28;20279;-52
2022/07/16 05:30:54;;;;;;;8.93;2.50;;;14.50;99.90;;;;;;4990467;28;20639;-53
2022/07/16 05:33:19;;;;;;;2.93;2.30;;;14.60;99.90;;;;;;4986033;28;20217;-53
2022/07/16 05:35:46;;;;;;;7.10;2.80;;;14.70;99.90;;;;;;4987102;28;20541;-53
2022/07/16 05:38:12;;;;;;;5.10;2.60;;;14.70;99.90;;;;;;4986994;28;20195;-53
2022/07/16 05:40:38;;;;;;;5.80;2.33;;;14.80;99.90;;;;;;4988392;28;20471;-53
2022/07/16 05:43:05;;;;;;;15.57;2.53;;;14.80;99.90;;;;;;4988347;28;20219;-53
2022/07/16 05:45:30;;;;;;;5.63;1.83;;;14.80;99.90;;;;;;4985906;28;21140;-53
2022/07/16 05:47:56;;;;;;;3.60;1.67;;;14.90;99.90;;;;;;4989314;28;20467;-53
2022/07/16 05:50:21;;;;;;;5.20;2.53;;;14.80;99.90;;;;;;4988299;28;20197;-52
2022/07/16 05:52:47;;;;;;;4.57;1.90;;;14.90;99.90;;;;;;4986986;28;20262;-53
2022/07/16 05:55:13;;;;;;;2.67;1.77;;;14.90;99.90;;;;;;4987482;28;20275;-53
2022/07/16 05:57:39;;;;;;;2.40;1.60;;;14.80;99.90;;;;;;4987497;28;20228;-62
2022/07/16 06:00:10;;;;;;;3.80;1.57;;;15.00;99.90;;;;;;4989652;28;21270;-53
2022/07/16 06:02:37;;;;;;;3.53;1.50;;;15.00;99.90;;;;;;4986872;28;20650;-53
2022/07/16 06:05:03;;;;;;;9.43;2.20;;;14.90;99.90;;;;;;4985802;28;20455;-52
2022/07/16 06:07:29;;;;;;;3.13;1.40;;;14.90;1.00;;;;;;4989930;28;21027;-53
2022/07/16 06:09:54;;;;;;;3.03;1.40;;;14.90;1.00;;;;;;4986975;28;20455;-53
2022/07/16 06:12:20;;;;;;;5.83;2.00;;;14.80;99.90;;;;;;4982347;28;20200;-52
2022/07/16 06:14:46;;;;;;;4.00;1.40;;;14.70;99.90;;;;;;4988015;28;20188;-52
2022/07/16 06:17:13;;;;;;;5.50;1.40;;;14.70;99.90;;;;;;4990544;28;20651;-52
2022/07/16 06:19:41;;;;;;;5.33;1.80;;;14.80;99.90;;;;;;4979765;28;20184;-52
2022/07/16 06:22:07;;;;;;;3.97;1.53;;;14.80;99.90;;;;;;4981071;28;20502;-52
2022/07/16 06:24:32;;;;;;;3.17;1.63;;;15.00;99.90;;;;;;4984272;28;20530;-52
2022/07/16 06:26:58;;;;;;;5.30;1.63;;;15.40;99.90;;;;;;4989183;28;20186;-52
2022/07/16 06:29:23;;;;;;;2.83;1.53;;;15.80;99.90;;;;;;4986203;28;20572;-52
2022/07/16 06:31:49;;;;;;;2.20;1.60;;;16.30;99.90;;;;;;4986622;28;20192;-52
2022/07/16 06:34:14;;;;;;;3.53;1.77;;;16.70;99.90;;;;;;4987491;28;20611;-52
2022/07/16 06:36:40;;;;;;;4.13;1.50;;;17.00;99.90;;;;;;4989633;28;20185;-52
2022/07/16 06:39:06;;;;;;;8.90;1.40;;;16.90;99.90;;;;;;4987936;28;20216;-52
2022/07/16 06:41:32;;;;;;;5.70;1.40;;;16.60;99.90;;;;;;4987730;28;20435;-52
2022/07/16 06:43:57;;;;;;;1.83;1.47;;;16.40;99.90;;;;;;4983460;28;20335;-52
2022/07/16 06:46:23;;;;;;;2.20;1.10;;;16.50;99.90;;;;;;4986829;28;20244;-52
2022/07/16 06:48:48;;;;;;;6.17;1.70;;;16.60;99.90;;;;;;4988031;28;20203;-59
2022/07/16 06:51:14;;;;;;;7.27;1.30;;;16.80;99.90;;;;;;4981639;28;20196;-52
2022/07/16 06:53:40;;;;;;;4.83;1.30;;;16.80;99.90;;;;;;4980983;28;20240;-52
2022/07/16 06:56:08;;;;;;;2.20;1.03;;;16.70;99.90;;;;;;4985778;28;20575;-52
2022/07/16 06:58:34;;;;;;;4.23;1.33;;;16.70;99.90;;;;;;4980637;28;20869;-52
2022/07/16 07:01:00;;;;;;;6.23;1.40;;;17.00;99.90;;;;;;4983178;28;20436;-52
2022/07/16 07:03:25;;;;;;;3.73;1.50;;;17.30;99.90;;;;;;4982506;28;20702;-52
2022/07/16 07:05:51;;;;;;;4.40;1.30;;;17.30;99.90;;;;;;4988002;28;20661;-52
2022/07/16 07:08:17;;;;;;;6.33;1.80;;;17.50;99.90;;;;;;4989445;28;20539;-52
2022/07/16 07:10:43;;;;;;;5.90;2.40;;;17.50;99.90;;;;;;4987899;28;20254;-52
2022/07/16 07:13:09;;;;;;;8.40;2.10;;;17.60;99.90;;;;;;4993046;28;20203;-52
2022/07/16 07:15:35;;;;;;;12.07;1.80;;;17.90;99.90;;;;;;4991706;28;21014;-52
2022/07/16 07:18:01;;;;;;;4.73;1.53;;;18.30;99.90;;;;;;4987311;28;20447;-52
2022/07/16 07:20:26;;;;;;;5.90;1.27;;;18.70;99.90;;;;;;4987652;28;20207;-52
2022/07/16 07:22:52;;;;;;;7.10;1.40;;;18.90;99.90;;;;;;4989279;28;20432;-52
2022/07/16 07:25:18;;;;;;;3.60;1.50;;;18.70;99.90;;;;;;4991139;28;20219;-52
2022/07/16 07:27:43;;;;;;;5.77;1.40;;;18.30;99.90;;;;;;4988758;28;20192;-52
2022/07/16 07:30:11;;;;;;;5.13;1.40;;;17.80;99.90;;;;;;4979263;28;20197;-52
2022/07/16 07:32:37;;;;;;;6.87;1.80;;;17.30;99.90;;;;;;4990179;28;20220;-52
2022/07/16 07:35:03;;;;;;;10.80;2.17;;;16.80;99.90;;;;;;4990027;28;20442;-52
2022/07/16 07:37:28;;;;;;;6.53;1.33;;;16.50;99.90;;;;;;4985891;28;20192;-52
2022/07/16 07:39:54;;;;;;;5.03;1.60;;;16.40;99.90;;;;;;4990020;28;20534;-53
2022/07/16 07:42:20;;;;;;;4.80;1.50;;;16.40;99.90;;;;;;4991954;28;20192;-52
